Aireys Inlet, Victoria

5:41 AM AEDT on October 24, 2014 (GMT +1100)
IVICTORI131 | Change Station
CLOSE
Current Station
Personal Weather Station
Location: Lorne, VICTORIA
Elevation: 295 ft
Nearby Weather Stations

Elev 295 ft 38.54 °S, 143.97 °E | Updated 8 minutes ago

Mostly Cloudy
Mostly Cloudy
57.8 °F
Feels Like 57.8 °F
N
3.0
Wind Variable Wind from ENE
Gusts 5.0 mph

Today
High -- | Low -- °F
--% Chance of Precip.
Yesterday
High -- | Low -- °F
Precip. -- in
6:26 AM 7:50 PM
Waning Crescent, 0% visible
Pressure 29.89 in
Visibility -9999.0 miles
Clouds Mostly Cloudy 1200 ft
Dew Point 57 °F
Humidity 96%
Rainfall 0.00 in
Snow Depth Not available.
UV 0 out of 12
Pollen Not available.
Air Quality Not available.
Flu Activity Not available.
SPECI YMAV 231834Z AUTO 00000KT 4300 // BKN012 11/11 Q1012 RMK AUTO OBSCURATION CODES REMOVED

More Conditions Fewer Conditions

Pressure 29.89 in
Visibility -9999.0 miles
Clouds Mostly Cloudy 1200 ft
Dew Point 57 °F
Humidity 96%
Rainfall 0.00 in
Snow Depth Not available.
UV 0 out of 12
Pollen Not available.
Air Quality Not available.
Flu Activity Not available.
SPECI YMAV 231834Z AUTO 00000KT 4300 // BKN012 11/11 Q1012 RMK AUTO OBSCURATION CODES REMOVED

More Conditions Fewer Conditions

10-Day Weather Forecast

Almanac

Astronomy

Oct. 24, 2014 Rise Set
Actual Time 6:26 AM AEDT 7:50 PM AEDT
Civil Twilight 5:58 AM AEDT 8:18 PM AEDT
Nautical Twilight 5:25 AM AEDT 8:51 PM AEDT
Astronomical Twilight 4:50 AM AEDT 9:26 PM AEDT
Moon 6:32 AM AEDT (10/24) 8:09 PM AEDT (10/24)
Length of Visible Light 14h 19m
Length of Day
13h 24m
Tomorrow will be 2m 22s longer.
Waning Crescent, 0% of the Moon is Illuminated
Oct 23
Waning Crescent
Oct 23
New
Oct 30
First Quarter
Nov 6
Full
Nov 14
Last Quarter

Yesterday's Extremes

Country Highs Country Lows

Community

WunderPhotos

Upload Photos

1,764,339 photos uploaded!

WunderBlogs® & News

Nearby

Snow Depth

Not available.

Earthquake Activity

City Distance Mag. Time & Date
No recent earthquake activity has been reported nearby.
Minimum magnitude displayed is 2.5.

Coastal Water Temperatures

Place Temperature
No Stations Reporting

Nearby Weather Stations